Terminal Aerodrome Forecast
Issued by NWS

Home | Current Version | Previous Version | Text Only | Print | Product List | Glossary On
Versions: 1 2 3 4 5 6 7 8 9 10 11 12 13 14 15 16 17 18 19 20 21 22 23
000
FTUS41 KRNK 061732
TAFBCB
TAF
KBCB 061732Z 0618/0718 13007KT P6SM TS VCSH SCT060CB BKN250
     FM061830 13007KT P6SM VCSH BKN060
     FM070000 00000KT P6SM SCT050 BKN100
     FM070800 00000KT 2SM BR FEW025 SCT040
     FM071300 09004KT P6SM BKN040=

USA.gov is the U.S. government's official web portal to all federal, state and local government web resources and services.